createdAt,value
2018-11-02T00:01:27.688Z,19.40
2018-11-02T00:03:55.204Z,19.40
2018-11-02T00:06:22.362Z,19.40
2018-11-02T00:08:49.436Z,19.40
2018-11-02T00:11:17.791Z,19.40
2018-11-02T00:13:44.939Z,19.40
2018-11-02T00:16:12.037Z,19.40
2018-11-02T00:18:39.145Z,19.40
2018-11-02T00:21:06.270Z,19.40
2018-11-02T00:23:33.382Z,19.30
2018-11-02T00:26:00.479Z,19.30
2018-11-02T00:28:27.575Z,19.30
2018-11-02T00:30:54.683Z,19.30
2018-11-02T00:33:21.802Z,19.30
2018-11-02T00:35:48.895Z,19.30
2018-11-02T00:38:16.009Z,19.30
2018-11-02T00:40:43.116Z,19.30
2018-11-02T00:43:10.219Z,19.30
2018-11-02T00:45:37.333Z,19.30
2018-11-02T00:48:04.626Z,19.30
2018-11-02T00:50:31.732Z,19.30
2018-11-02T00:52:58.858Z,19.30
2018-11-02T00:55:25.963Z,19.30
2018-11-02T00:57:53.091Z,19.30
2018-11-02T01:00:20.192Z,19.20
2018-11-02T01:02:47.316Z,19.20
2018-11-02T01:05:14.414Z,19.20
2018-11-02T01:07:41.535Z,19.20
2018-11-02T01:10:08.649Z,19.20
2018-11-02T01:12:36.780Z,19.20
2018-11-02T01:15:04.744Z,19.20
2018-11-02T01:17:31.843Z,19.20
2018-11-02T01:19:58.965Z,19.20
2018-11-02T01:22:26.090Z,19.20
2018-11-02T01:24:53.217Z,19.20
2018-11-02T01:27:20.322Z,19.20
2018-11-02T01:29:47.446Z,19.20
2018-11-02T01:32:14.572Z,19.20
2018-11-02T01:34:41.681Z,19.20
2018-11-02T01:37:08.787Z,19.20
2018-11-02T01:39:35.996Z,19.20
2018-11-02T01:42:03.107Z,19.20
2018-11-02T01:44:30.207Z,19.20
2018-11-02T01:46:57.323Z,19.10
2018-11-02T01:49:24.425Z,19.20
2018-11-02T01:51:51.555Z,19.20
2018-11-02T01:54:18.660Z,19.20
2018-11-02T01:56:45.782Z,19.10
2018-11-02T01:59:12.895Z,19.10
2018-11-02T02:01:39.999Z,19.10
2018-11-02T02:04:07.132Z,19.10
2018-11-02T02:06:34.343Z,19.10
2018-11-02T02:09:01.481Z,19.10
2018-11-02T02:11:28.607Z,19.10
2018-11-02T02:13:55.711Z,19.10
2018-11-02T02:16:22.829Z,19.10
2018-11-02T02:18:49.938Z,19.10
2018-11-02T02:21:17.062Z,19.10
2018-11-02T02:23:44.168Z,19.10
2018-11-02T02:26:11.258Z,19.10
2018-11-02T02:28:38.344Z,19.10
2018-11-02T02:31:05.511Z,19.10
2018-11-02T02:33:32.603Z,19.10
2018-11-02T02:35:59.727Z,19.10
2018-11-02T02:38:26.842Z,19.10
2018-11-02T02:40:53.939Z,19.00
2018-11-02T02:43:21.023Z,19.00
2018-11-02T02:45:48.121Z,19.00
2018-11-02T02:48:15.227Z,19.00
2018-11-02T02:50:42.331Z,19.00
2018-11-02T02:53:09.461Z,19.00
2018-11-02T02:55:36.563Z,19.00
2018-11-02T02:58:04.207Z,19.00
2018-11-02T03:00:31.320Z,19.00
2018-11-02T03:02:58.417Z,19.00
2018-11-02T03:05:25.535Z,19.00
2018-11-02T03:07:52.649Z,19.00
2018-11-02T03:10:19.872Z,19.00
2018-11-02T03:12:46.896Z,19.00
2018-11-02T03:15:14.024Z,19.00
2018-11-02T03:17:41.136Z,19.00
2018-11-02T03:20:09.058Z,19.00
2018-11-02T03:22:36.573Z,19.00
2018-11-02T03:25:04.412Z,19.00
2018-11-02T03:27:31.507Z,18.90
2018-11-02T03:29:58.626Z,18.90
2018-11-02T03:32:25.719Z,18.90
2018-11-02T03:34:52.828Z,19.00
2018-11-02T03:37:19.931Z,18.90
2018-11-02T03:39:47.060Z,18.90
2018-11-02T03:42:14.168Z,18.90
2018-11-02T03:44:41.271Z,18.90
2018-11-02T03:47:08.397Z,18.90
2018-11-02T03:49:35.557Z,18.90
2018-11-02T03:52:02.695Z,18.90
2018-11-02T03:54:30.079Z,18.90
2018-11-02T03:56:57.298Z,18.90
2018-11-02T03:59:24.478Z,18.90
2018-11-02T04:01:51.587Z,18.90
2018-11-02T04:04:18.709Z,18.90
2018-11-02T04:06:45.775Z,18.90
2018-11-02T04:09:13.381Z,18.90
2018-11-02T04:11:40.413Z,18.90
2018-11-02T04:14:07.528Z,18.90
2018-11-02T04:16:34.631Z,18.90
2018-11-02T04:19:02.214Z,18.90
2018-11-02T04:21:33.950Z,18.90
2018-11-02T04:24:01.072Z,18.90
2018-11-02T04:26:28.171Z,18.90
2018-11-02T04:28:55.276Z,18.90
2018-11-02T04:31:22.372Z,18.80
2018-11-02T04:33:49.485Z,18.90
2018-11-02T04:36:16.559Z,18.80
2018-11-02T04:38:43.653Z,18.80
2018-11-02T04:41:10.784Z,18.80
2018-11-02T04:43:37.893Z,18.80
2018-11-02T04:46:04.984Z,18.80
2018-11-02T04:48:32.074Z,18.80
2018-11-02T04:50:59.203Z,18.80
2018-11-02T04:53:26.327Z,18.80
2018-11-02T04:55:53.471Z,18.80
2018-11-02T04:58:20.572Z,18.80
2018-11-02T05:00:47.647Z,18.80
2018-11-02T05:03:14.752Z,18.80
2018-11-02T05:05:41.872Z,18.80
2018-11-02T05:08:08.959Z,18.80
2018-11-02T05:10:36.064Z,18.80
2018-11-02T05:13:03.175Z,18.80
2018-11-02T05:15:30.354Z,18.80
2018-11-02T05:17:57.452Z,18.80
2018-11-02T05:20:24.559Z,18.80
2018-11-02T05:22:51.663Z,18.80
2018-11-02T05:25:18.771Z,18.80
2018-11-02T05:27:45.887Z,18.80
2018-11-02T05:30:12.995Z,18.80
2018-11-02T05:32:40.096Z,18.80
2018-11-02T05:35:07.239Z,18.80
2018-11-02T05:37:34.353Z,18.80
2018-11-02T05:40:01.452Z,18.80
2018-11-02T05:42:28.543Z,18.80
2018-11-02T05:44:55.684Z,18.80
2018-11-02T05:47:22.880Z,18.80
2018-11-02T05:49:49.973Z,18.80
2018-11-02T05:52:17.010Z,18.80
2018-11-02T05:54:44.155Z,18.70
2018-11-02T05:57:11.275Z,18.80
2018-11-02T05:59:38.367Z,18.70
2018-11-02T06:02:05.939Z,18.80
2018-11-02T06:04:33.049Z,18.80
2018-11-02T06:07:00.187Z,18.70
2018-11-02T06:09:27.394Z,18.70
2018-11-02T06:11:54.511Z,18.70
2018-11-02T06:14:21.617Z,18.70
2018-11-02T06:16:48.952Z,18.70
2018-11-02T06:19:16.096Z,18.70
2018-11-02T06:21:43.172Z,18.70
2018-11-02T06:24:10.375Z,18.70
2018-11-02T06:26:37.411Z,18.70
2018-11-02T06:29:04.539Z,18.70
2018-11-02T06:31:31.781Z,18.70
2018-11-02T06:33:58.898Z,18.70
2018-11-02T06:36:26.010Z,18.70
2018-11-02T06:38:53.244Z,18.70
2018-11-02T06:41:20.239Z,18.70
2018-11-02T06:43:47.338Z,18.70
2018-11-02T06:46:14.451Z,18.70
2018-11-02T06:48:41.542Z,18.70
2018-11-02T06:51:08.628Z,18.70
2018-11-02T06:53:35.727Z,18.70
2018-11-02T06:56:02.816Z,18.70
2018-11-02T06:58:29.930Z,18.70
2018-11-02T07:00:57.027Z,18.70
2018-11-02T07:03:24.127Z,18.70
2018-11-02T07:05:51.219Z,18.70
2018-11-02T07:08:18.340Z,18.70
2018-11-02T07:10:45.610Z,18.60
2018-11-02T07:13:12.721Z,18.70
2018-11-02T07:15:39.814Z,18.70
2018-11-02T07:18:06.906Z,18.60
2018-11-02T07:20:34.007Z,18.60
2018-11-02T07:23:01.096Z,18.70
2018-11-02T07:25:28.199Z,18.60
2018-11-02T07:27:55.445Z,18.60
2018-11-02T07:30:22.574Z,18.60
2018-11-02T07:32:49.658Z,18.60
2018-11-02T07:35:16.750Z,18.60
2018-11-02T07:37:43.852Z,18.60
2018-11-02T07:40:11.382Z,18.60
2018-11-02T07:42:38.883Z,18.60
2018-11-02T07:45:06.725Z,18.60
2018-11-02T07:47:34.008Z,18.60
2018-11-02T07:50:01.056Z,18.60
2018-11-02T07:52:28.216Z,18.60
2018-11-02T07:54:55.295Z,18.60
2018-11-02T07:57:22.403Z,18.60
2018-11-02T07:59:49.509Z,18.60
2018-11-02T08:02:16.623Z,18.60
2018-11-02T08:04:43.752Z,18.60
2018-11-02T08:07:10.831Z,18.60
2018-11-02T08:09:37.924Z,18.60
2018-11-02T08:12:05.054Z,18.60
2018-11-02T08:14:32.134Z,18.60
2018-11-02T08:16:59.226Z,18.60
2018-11-02T08:19:26.308Z,18.60
2018-11-02T08:21:53.414Z,18.60
2018-11-02T08:24:20.526Z,18.60
2018-11-02T08:26:47.619Z,18.60
2018-11-02T08:29:14.753Z,18.50
2018-11-02T08:31:41.856Z,18.60
2018-11-02T08:34:08.928Z,18.50
2018-11-02T08:36:36.011Z,18.60
2018-11-02T08:39:04.562Z,18.50
2018-11-02T08:41:31.679Z,18.50
2018-11-02T08:43:58.790Z,18.60
2018-11-02T08:46:25.889Z,18.50
2018-11-02T08:48:52.990Z,18.50
2018-11-02T08:51:20.107Z,18.50
2018-11-02T08:53:47.171Z,18.50
2018-11-02T08:56:14.363Z,18.50
2018-11-02T08:58:41.691Z,18.50
2018-11-02T09:01:08.632Z,18.50
2018-11-02T09:03:35.723Z,18.50
2018-11-02T09:06:02.870Z,18.50
2018-11-02T09:08:29.954Z,18.50
2018-11-02T09:10:57.058Z,18.50
2018-11-02T09:13:24.178Z,18.50
2018-11-02T09:15:51.276Z,18.50
2018-11-02T09:18:18.404Z,18.50
2018-11-02T09:20:45.486Z,18.50
2018-11-02T09:23:12.564Z,18.50
2018-11-02T09:25:39.676Z,18.50
2018-11-02T09:28:06.862Z,18.50
2018-11-02T09:30:33.875Z,18.50
2018-11-02T09:33:01.040Z,18.50
2018-11-02T09:35:28.077Z,18.50
2018-11-02T09:37:55.203Z,18.50
2018-11-02T09:40:22.365Z,18.50
2018-11-02T09:42:49.569Z,18.50
2018-11-02T09:45:16.567Z,18.50
2018-11-02T09:47:43.963Z,18.50
2018-11-02T09:50:11.528Z,18.50
2018-11-02T09:52:38.902Z,18.50
2018-11-02T09:55:07.083Z,18.50
2018-11-02T09:57:34.217Z,18.50
2018-11-02T10:00:01.302Z,18.50
2018-11-02T10:02:28.423Z,18.50
2018-11-02T10:04:55.540Z,18.50
2018-11-02T10:07:22.669Z,18.50
2018-11-02T10:09:49.788Z,18.50
2018-11-02T10:12:16.882Z,18.50
2018-11-02T10:14:43.991Z,18.50
2018-11-02T10:17:11.107Z,18.50
2018-11-02T10:19:38.199Z,18.50
2018-11-02T10:22:05.298Z,18.50
2018-11-02T10:24:32.379Z,18.50
2018-11-02T10:26:59.542Z,18.50
2018-11-02T10:29:26.651Z,18.50
2018-11-02T10:31:53.760Z,18.50
2018-11-02T10:34:20.886Z,18.50
2018-11-02T10:36:47.998Z,18.50
2018-11-02T10:39:15.105Z,18.50
2018-11-02T10:41:45.180Z,18.50
2018-11-02T10:44:13.489Z,18.50
2018-11-02T10:46:40.609Z,18.50
2018-11-02T10:49:07.805Z,18.50
2018-11-02T10:51:34.849Z,18.50
2018-11-02T10:54:01.956Z,18.50
2018-11-02T10:56:29.090Z,18.50
2018-11-02T10:58:56.198Z,18.50
2018-11-02T11:01:29.184Z,18.50
2018-11-02T11:03:56.155Z,18.50
2018-11-02T11:06:23.236Z,18.50
2018-11-02T11:08:50.346Z,18.50
2018-11-02T11:11:17.482Z,18.50
2018-11-02T11:13:45.053Z,18.50
2018-11-02T11:16:11.908Z,18.50
2018-11-02T11:18:39.019Z,18.50
2018-11-02T11:21:06.269Z,18.50
2018-11-02T11:23:33.356Z,18.50
2018-11-02T11:26:00.464Z,18.50
2018-11-02T11:28:27.592Z,18.50
2018-11-02T11:30:54.724Z,18.50
2018-11-02T11:33:21.832Z,18.50
2018-11-02T11:35:48.948Z,18.50
2018-11-02T11:38:16.019Z,18.50
2018-11-02T11:40:43.130Z,18.50
2018-11-02T11:43:10.233Z,18.50
2018-11-02T11:45:37.343Z,18.50
2018-11-02T11:48:04.428Z,18.50
2018-11-02T11:50:31.530Z,18.50
2018-11-02T11:52:58.611Z,18.50
2018-11-02T11:55:25.723Z,18.50
2018-11-02T11:57:52.831Z,18.50
2018-11-02T12:00:21.127Z,18.50
2018-11-02T12:02:48.894Z,18.50
2018-11-02T12:05:17.242Z,18.50
2018-11-02T12:07:44.344Z,18.50
2018-11-02T12:10:14.045Z,18.40
2018-11-02T12:12:41.183Z,18.40
2018-11-02T12:15:10.391Z,18.40
2018-11-02T12:17:37.812Z,18.40
2018-11-02T12:20:08.560Z,18.40
2018-11-02T12:22:35.679Z,18.40
2018-11-02T12:25:02.945Z,18.40
2018-11-02T12:27:29.931Z,18.40
2018-11-02T12:29:57.019Z,18.40
2018-11-02T12:32:24.116Z,18.40
2018-11-02T12:34:51.210Z,18.40
2018-11-02T12:37:18.305Z,18.40
2018-11-02T12:39:45.426Z,18.40
2018-11-02T12:42:12.535Z,18.40
2018-11-02T12:44:39.629Z,18.40
2018-11-02T12:47:06.794Z,18.40
2018-11-02T12:49:34.171Z,18.40
2018-11-02T12:52:01.003Z,18.40
2018-11-02T12:54:28.268Z,18.40
2018-11-02T12:56:55.348Z,18.40
2018-11-02T12:59:22.470Z,18.40
2018-11-02T13:01:49.572Z,18.40
2018-11-02T13:04:16.655Z,18.40
2018-11-02T13:06:43.942Z,18.40
2018-11-02T13:09:11.057Z,18.40
2018-11-02T13:11:38.118Z,18.40
2018-11-02T13:14:05.193Z,18.40
2018-11-02T13:16:32.300Z,18.40
2018-11-02T13:18:59.513Z,18.40
2018-11-02T13:21:26.523Z,18.40
2018-11-02T13:23:53.661Z,18.40
2018-11-02T13:26:20.807Z,18.40
2018-11-02T13:28:47.841Z,18.40
2018-11-02T13:31:14.995Z,18.40
2018-11-02T13:33:42.062Z,18.40
2018-11-02T13:36:09.183Z,18.40
2018-11-02T13:38:36.218Z,18.40
2018-11-02T13:41:03.323Z,18.40
2018-11-02T13:43:30.469Z,18.40
2018-11-02T13:45:57.672Z,18.40
2018-11-02T13:48:24.759Z,18.40
2018-11-02T13:50:51.891Z,18.40
2018-11-02T13:53:19.090Z,18.40
2018-11-02T13:55:46.192Z,18.40
2018-11-02T13:58:13.286Z,18.40
2018-11-02T14:00:40.403Z,18.40
2018-11-02T14:03:07.490Z,18.40
2018-11-02T14:05:34.597Z,18.40
2018-11-02T14:08:01.687Z,18.40
2018-11-02T14:10:28.831Z,18.40
2018-11-02T14:12:55.938Z,18.40
2018-11-02T14:15:23.031Z,18.40
2018-11-02T14:17:50.099Z,18.40
2018-11-02T14:20:17.219Z,18.40
2018-11-02T14:22:44.330Z,18.40
2018-11-02T14:25:12.517Z,18.40
2018-11-02T14:27:39.603Z,18.40
2018-11-02T14:30:08.186Z,18.40
2018-11-02T14:32:35.481Z,18.40
2018-11-02T14:35:02.594Z,18.40
2018-11-02T14:37:29.701Z,18.40
2018-11-02T14:39:56.821Z,18.40
2018-11-02T14:42:23.935Z,18.40
2018-11-02T14:44:51.033Z,18.40
2018-11-02T14:47:18.181Z,18.40
2018-11-02T14:49:45.300Z,18.40
2018-11-02T14:52:12.407Z,18.40
2018-11-02T14:54:39.564Z,18.40
2018-11-02T14:57:06.703Z,18.40
2018-11-02T14:59:33.856Z,18.40
2018-11-02T15:02:00.963Z,18.40
2018-11-02T15:04:28.068Z,18.40
2018-11-02T15:06:55.163Z,18.40
2018-11-02T15:09:22.295Z,18.40
2018-11-02T15:11:49.403Z,18.40
2018-11-02T15:14:16.521Z,18.40
2018-11-02T15:16:43.611Z,18.40
2018-11-02T15:19:10.739Z,18.40
2018-11-02T15:21:37.894Z,18.40
2018-11-02T15:24:05.057Z,18.40
2018-11-02T15:26:32.226Z,18.40
2018-11-02T15:28:59.314Z,18.40
2018-11-02T15:31:26.435Z,18.40
2018-11-02T15:33:53.566Z,18.40
2018-11-02T15:36:20.673Z,18.40
2018-11-02T15:38:47.834Z,18.40
2018-11-02T15:41:14.961Z,18.40
2018-11-02T15:43:42.079Z,18.40
2018-11-02T15:46:09.193Z,18.40
2018-11-02T15:48:36.317Z,18.40
2018-11-02T15:51:03.466Z,18.40
2018-11-02T15:53:30.677Z,18.40
2018-11-02T15:55:57.739Z,18.40
2018-11-02T15:58:24.865Z,18.40
2018-11-02T16:00:52.003Z,18.40
2018-11-02T16:03:19.129Z,18.40
2018-11-02T16:05:46.251Z,18.40
2018-11-02T16:08:13.338Z,18.40
2018-11-02T16:10:40.448Z,18.40
2018-11-02T16:13:07.543Z,18.40
2018-11-02T16:15:34.651Z,18.40
2018-11-02T16:18:01.768Z,18.30
2018-11-02T16:20:28.947Z,18.30
2018-11-02T16:22:55.971Z,18.30
2018-11-02T16:25:23.074Z,18.30
2018-11-02T16:27:50.187Z,18.30
2018-11-02T16:30:17.308Z,18.30
2018-11-02T16:32:44.450Z,18.30
2018-11-02T16:35:11.833Z,18.30
2018-11-02T16:37:39.027Z,18.30
2018-11-02T16:40:08.504Z,18.30
2018-11-02T16:42:35.635Z,18.30
2018-11-02T16:45:02.763Z,18.30
2018-11-02T16:47:29.867Z,18.30
2018-11-02T16:49:56.963Z,18.30
2018-11-02T16:52:24.096Z,18.30
2018-11-02T16:54:51.200Z,18.30
2018-11-02T16:57:18.332Z,18.30
2018-11-02T16:59:45.439Z,18.30
2018-11-02T17:02:12.563Z,18.30
2018-11-02T17:04:46.401Z,18.30
2018-11-02T17:07:13.482Z,18.30
2018-11-02T17:09:40.624Z,18.30
2018-11-02T17:12:07.743Z,18.30
2018-11-02T17:14:34.922Z,18.30
2018-11-02T17:17:02.030Z,18.30
2018-11-02T17:19:29.155Z,18.30
2018-11-02T17:21:56.278Z,18.30
2018-11-02T17:24:23.395Z,18.30
2018-11-02T17:26:50.521Z,18.30
2018-11-02T17:29:17.607Z,18.30
2018-11-02T17:31:44.740Z,18.30
2018-11-02T17:34:11.847Z,18.30
2018-11-02T17:36:39.036Z,18.30
2018-11-02T17:39:07.931Z,18.30
2018-11-02T17:41:35.044Z,18.30
2018-11-02T17:44:02.161Z,18.30
2018-11-02T17:46:29.270Z,18.30
2018-11-02T17:48:56.377Z,18.30
2018-11-02T17:51:23.487Z,18.30
2018-11-02T17:53:50.612Z,18.30
2018-11-02T17:56:17.724Z,18.30
2018-11-02T17:58:44.847Z,18.30
2018-11-02T18:01:11.974Z,18.30
2018-11-02T18:03:39.132Z,18.30
2018-11-02T18:06:06.338Z,18.20
2018-11-02T18:08:33.440Z,18.30
2018-11-02T18:11:00.480Z,18.30
2018-11-02T18:13:27.621Z,18.30
2018-11-02T18:15:54.747Z,18.20
2018-11-02T18:18:21.855Z,18.30
2018-11-02T18:20:48.942Z,18.30
2018-11-02T18:23:16.083Z,18.30
2018-11-02T18:25:43.199Z,18.30
2018-11-02T18:28:10.291Z,18.20
2018-11-02T18:30:37.403Z,18.30
2018-11-02T18:33:04.541Z,18.30
2018-11-02T18:35:31.754Z,18.30
2018-11-02T18:37:58.775Z,18.30
2018-11-02T18:40:25.869Z,18.30
2018-11-02T18:42:52.962Z,18.20
2018-11-02T18:45:20.075Z,18.20
2018-11-02T18:47:48.371Z,18.30
2018-11-02T18:50:16.597Z,18.30
2018-11-02T18:52:44.147Z,18.30
2018-11-02T18:55:11.243Z,18.30
2018-11-02T18:57:38.731Z,18.20
2018-11-02T19:00:06.576Z,18.30
2018-11-02T19:02:33.717Z,18.30
2018-11-02T19:05:00.884Z,18.20
2018-11-02T19:07:27.996Z,18.30
2018-11-02T19:09:55.110Z,18.30
2018-11-02T19:12:22.216Z,18.20
2018-11-02T19:14:49.339Z,18.30
2018-11-02T19:17:16.420Z,18.20
2018-11-02T19:19:43.566Z,18.20
2018-11-02T19:22:10.654Z,18.30
2018-11-02T19:24:37.745Z,18.20
2018-11-02T19:27:05.166Z,18.30
2018-11-02T19:29:32.210Z,18.20
2018-11-02T19:31:59.340Z,18.30
2018-11-02T19:34:26.417Z,18.20
2018-11-02T19:36:53.498Z,18.30
2018-11-02T19:39:20.619Z,18.20
2018-11-02T19:41:47.720Z,18.20
2018-11-02T19:44:14.802Z,18.20
2018-11-02T19:46:42.016Z,18.30
2018-11-02T19:49:09.229Z,18.20
2018-11-02T19:51:36.220Z,18.20
2018-11-02T19:54:03.336Z,18.20
2018-11-02T19:56:30.463Z,18.20
2018-11-02T19:58:57.616Z,18.20
2018-11-02T20:01:24.739Z,18.20
2018-11-02T20:03:51.863Z,18.20
2018-11-02T20:06:18.974Z,18.30
2018-11-02T20:08:46.075Z,18.20
2018-11-02T20:11:13.195Z,18.20
2018-11-02T20:13:40.310Z,18.30
2018-11-02T20:16:07.411Z,18.20
2018-11-02T20:18:34.550Z,18.20
2018-11-02T20:21:01.704Z,18.20
2018-11-02T20:23:28.776Z,18.20
2018-11-02T20:25:55.917Z,18.20
2018-11-02T20:28:23.197Z,18.20
2018-11-02T20:30:50.313Z,18.20
2018-11-02T20:33:17.441Z,18.20
2018-11-02T20:35:44.547Z,18.20
2018-11-02T20:38:11.639Z,18.20
2018-11-02T20:40:38.748Z,18.20
2018-11-02T20:43:05.868Z,18.20
2018-11-02T20:45:32.991Z,18.20
2018-11-02T20:48:00.116Z,18.20
2018-11-02T20:50:27.226Z,18.20
2018-11-02T20:52:54.323Z,18.20
2018-11-02T20:55:21.462Z,18.20
2018-11-02T20:57:48.604Z,18.20
2018-11-02T21:00:17.022Z,18.20
2018-11-02T21:02:44.430Z,18.20
2018-11-02T21:05:12.664Z,18.20
2018-11-02T21:07:40.212Z,18.20
2018-11-02T21:10:08.928Z,18.20
2018-11-02T21:12:36.038Z,18.20
2018-11-02T21:15:03.599Z,18.20
2018-11-02T21:17:30.536Z,18.20
2018-11-02T21:19:57.635Z,18.20
2018-11-02T21:22:24.755Z,18.20
2018-11-02T21:24:51.859Z,18.20
2018-11-02T21:27:18.964Z,18.20
2018-11-02T21:29:46.092Z,18.20
2018-11-02T21:32:13.196Z,18.20
2018-11-02T21:34:40.282Z,18.20
2018-11-02T21:37:07.372Z,18.20
2018-11-02T21:39:34.472Z,18.20
2018-11-02T21:42:01.574Z,18.20
2018-11-02T21:44:28.706Z,18.20
2018-11-02T21:46:55.819Z,18.20
2018-11-02T21:49:22.923Z,18.20
2018-11-02T21:51:50.044Z,18.20
2018-11-02T21:54:17.134Z,18.20
2018-11-02T21:56:44.322Z,18.20
2018-11-02T21:59:11.346Z,18.20
2018-11-02T22:01:38.432Z,18.20
2018-11-02T22:04:05.731Z,18.20
2018-11-02T22:06:33.023Z,18.20
2018-11-02T22:09:00.334Z,18.20
2018-11-02T22:11:27.573Z,18.20
2018-11-02T22:13:54.545Z,18.20
2018-11-02T22:16:21.657Z,18.20
2018-11-02T22:18:48.828Z,18.20
2018-11-02T22:21:15.894Z,18.20
2018-11-02T22:23:43.571Z,18.20
2018-11-02T22:26:10.703Z,18.20
2018-11-02T22:28:37.810Z,18.20
2018-11-02T22:31:04.936Z,18.20
2018-11-02T22:33:32.015Z,18.30
2018-11-02T22:35:59.139Z,18.20
2018-11-02T22:38:26.259Z,18.20
2018-11-02T22:40:53.354Z,18.20
2018-11-02T22:43:20.447Z,18.20
2018-11-02T22:45:47.584Z,18.20
2018-11-02T22:48:20.524Z,18.20
2018-11-02T22:50:47.591Z,18.20
2018-11-02T22:53:14.688Z,18.20
2018-11-02T22:55:41.783Z,18.20
2018-11-02T22:58:08.882Z,18.20
2018-11-02T23:00:40.623Z,18.20
2018-11-02T23:03:07.728Z,18.20
2018-11-02T23:05:34.872Z,18.20
2018-11-02T23:08:01.939Z,18.30
2018-11-02T23:10:29.038Z,18.20
2018-11-02T23:12:56.724Z,18.20
2018-11-02T23:15:23.860Z,18.30
2018-11-02T23:17:51.171Z,18.20
2018-11-02T23:20:18.300Z,18.20
2018-11-02T23:22:45.401Z,18.20
2018-11-02T23:25:12.808Z,18.20
2018-11-02T23:27:41.142Z,18.20
2018-11-02T23:30:08.952Z,18.20
2018-11-02T23:32:35.908Z,18.20
2018-11-02T23:35:03.027Z,18.20
2018-11-02T23:37:30.143Z,18.20
2018-11-02T23:39:57.255Z,18.20
2018-11-02T23:42:24.347Z,18.20
2018-11-02T23:44:51.484Z,18.20
2018-11-02T23:47:18.596Z,18.20
2018-11-02T23:49:45.729Z,18.20
2018-11-02T23:52:12.847Z,18.20
2018-11-02T23:54:39.952Z,18.20
2018-11-02T23:57:07.071Z,18.20
2018-11-02T23:59:34.183Z,18.20
